createdAt,value
2017-06-09T00:00:20.175Z,17.49
2017-06-09T00:01:00.718Z,17.49
2017-06-09T00:01:41.266Z,17.54
2017-06-09T00:02:21.812Z,17.52
2017-06-09T00:03:02.343Z,17.51
2017-06-09T00:03:42.886Z,17.52
2017-06-09T00:04:23.430Z,17.49
2017-06-09T00:05:03.972Z,17.41
2017-06-09T00:05:44.516Z,17.43
2017-06-09T00:06:25.061Z,17.44
2017-06-09T00:07:05.599Z,17.46
2017-06-09T00:07:46.129Z,17.43
2017-06-09T00:08:26.667Z,17.43
2017-06-09T00:09:07.200Z,17.44
2017-06-09T00:09:47.759Z,17.49
2017-06-09T00:10:28.300Z,17.46
2017-06-09T00:11:08.850Z,17.51
2017-06-09T00:11:49.391Z,17.51
2017-06-09T00:12:29.935Z,17.55
2017-06-09T00:13:10.479Z,17.51
2017-06-09T00:13:51.028Z,17.55
2017-06-09T00:14:31.566Z,17.52
2017-06-09T00:15:12.114Z,17.52
2017-06-09T00:15:52.653Z,17.52
2017-06-09T00:16:33.188Z,17.49
2017-06-09T00:17:13.729Z,17.54
2017-06-09T00:17:54.266Z,17.48
2017-06-09T00:18:34.808Z,17.52
2017-06-09T00:19:15.353Z,17.48
2017-06-09T00:19:55.904Z,17.44
2017-06-09T00:20:36.449Z,17.49
2017-06-09T00:21:16.994Z,17.51
2017-06-09T00:21:57.540Z,17.58
2017-06-09T00:22:38.077Z,17.54
2017-06-09T00:23:18.622Z,17.52
2017-06-09T00:23:59.168Z,17.54
2017-06-09T00:24:39.713Z,17.52
2017-06-09T00:25:20.248Z,17.62
2017-06-09T00:26:00.789Z,17.59
2017-06-09T00:26:41.336Z,17.59
2017-06-09T00:27:21.867Z,17.58
2017-06-09T00:28:02.410Z,17.63
2017-06-09T00:28:42.964Z,17.62
2017-06-09T00:29:23.503Z,17.64
2017-06-09T00:30:04.053Z,17.58
2017-06-09T00:30:44.605Z,17.63
2017-06-09T00:31:25.148Z,17.56
2017-06-09T00:32:05.727Z,17.63
2017-06-09T00:32:46.227Z,17.59
2017-06-09T00:33:26.772Z,17.59
2017-06-09T00:34:07.308Z,17.59
2017-06-09T00:34:47.859Z,17.58
2017-06-09T00:35:28.435Z,17.56
2017-06-09T00:36:08.975Z,17.62
2017-06-09T00:36:49.507Z,17.62
2017-06-09T00:37:30.055Z,17.56
2017-06-09T00:38:10.602Z,17.56
2017-06-09T00:38:51.151Z,17.64
2017-06-09T00:39:31.693Z,17.59
2017-06-09T00:40:12.225Z,17.63
2017-06-09T00:40:52.777Z,17.56
2017-06-09T00:41:33.327Z,17.59
2017-06-09T00:42:13.875Z,17.58
2017-06-09T00:42:54.417Z,17.56
2017-06-09T00:43:34.958Z,17.63
2017-06-09T00:44:15.508Z,17.58
2017-06-09T00:44:56.066Z,17.62
2017-06-09T00:45:36.610Z,17.56
2017-06-09T00:46:17.164Z,17.62
2017-06-09T00:46:57.709Z,17.54
2017-06-09T00:47:38.253Z,17.56
2017-06-09T00:48:18.797Z,17.58
2017-06-09T00:48:59.345Z,17.62
2017-06-09T00:49:39.888Z,17.55
2017-06-09T00:50:20.424Z,17.56
2017-06-09T00:51:00.963Z,17.58
2017-06-09T00:51:41.495Z,17.56
2017-06-09T00:52:22.038Z,17.55
2017-06-09T00:53:02.586Z,17.54
2017-06-09T00:53:43.155Z,17.56
2017-06-09T00:54:23.672Z,17.64
2017-06-09T00:55:04.251Z,17.54
2017-06-09T00:55:44.792Z,17.59
2017-06-09T00:56:25.348Z,17.55
2017-06-09T00:57:05.898Z,17.56
2017-06-09T00:57:46.443Z,17.58
2017-06-09T00:58:26.989Z,17.54
2017-06-09T00:59:07.528Z,17.55
2017-06-09T00:59:48.075Z,17.52
2017-06-09T01:00:28.622Z,17.48
2017-06-09T01:01:09.170Z,17.56
2017-06-09T01:01:49.720Z,17.52
2017-06-09T01:02:30.267Z,17.51
2017-06-09T01:03:10.813Z,17.55
2017-06-09T01:03:51.354Z,17.52
2017-06-09T01:04:31.885Z,17.46
2017-06-09T01:05:12.437Z,17.48
2017-06-09T01:05:52.989Z,17.52
2017-06-09T01:06:33.533Z,17.52
2017-06-09T01:07:14.075Z,17.52
2017-06-09T01:07:54.630Z,17.51
2017-06-09T01:08:35.174Z,17.49
2017-06-09T01:09:15.712Z,17.52
2017-06-09T01:09:56.272Z,17.55
2017-06-09T01:10:36.819Z,17.52
2017-06-09T01:11:17.377Z,17.55
2017-06-09T01:11:57.929Z,17.52
2017-06-09T01:12:38.466Z,17.59
2017-06-09T01:13:19.029Z,17.55
2017-06-09T01:13:59.568Z,17.56
2017-06-09T01:14:40.121Z,17.52
2017-06-09T01:15:20.670Z,17.54
2017-06-09T01:16:01.224Z,17.52
2017-06-09T01:16:41.767Z,17.49
2017-06-09T01:17:22.312Z,17.54
2017-06-09T01:18:02.861Z,17.51
2017-06-09T01:18:43.405Z,17.49
2017-06-09T01:19:23.943Z,17.52
2017-06-09T01:20:04.484Z,17.52
2017-06-09T01:20:45.025Z,17.49
2017-06-09T01:21:25.565Z,17.51
2017-06-09T01:22:06.108Z,17.51
2017-06-09T01:22:46.652Z,17.52
2017-06-09T01:23:27.189Z,17.52
2017-06-09T01:24:07.729Z,17.51
2017-06-09T01:24:48.276Z,17.48
2017-06-09T01:25:28.833Z,17.41
2017-06-09T01:26:09.369Z,17.43
2017-06-09T01:26:49.910Z,17.4
2017-06-09T01:27:30.500Z,17.44
2017-06-09T01:28:11.043Z,17.4
2017-06-09T01:28:51.578Z,17.37
2017-06-09T01:29:32.119Z,17.38
2017-06-09T01:30:12.659Z,17.37
2017-06-09T01:30:53.191Z,17.31
2017-06-09T01:31:33.732Z,17.3
2017-06-09T01:32:14.266Z,17.31
2017-06-09T01:32:54.809Z,17.28
2017-06-09T01:33:35.337Z,17.34
2017-06-09T01:34:15.884Z,17.21
2017-06-09T01:34:56.446Z,17.26
2017-06-09T01:35:36.987Z,17.19
2017-06-09T01:36:17.531Z,17.21
2017-06-09T01:36:58.072Z,17.21
2017-06-09T01:37:38.614Z,17.21
2017-06-09T01:38:19.163Z,17.22
2017-06-09T01:38:59.715Z,17.25
2017-06-09T01:39:40.232Z,17.26
2017-06-09T01:40:20.781Z,17.28
2017-06-09T01:41:01.326Z,17.25
2017-06-09T01:41:41.865Z,17.18
2017-06-09T01:42:22.410Z,17.25
2017-06-09T01:43:02.959Z,17.23
2017-06-09T01:43:43.496Z,17.18
2017-06-09T01:44:24.040Z,17.22
2017-06-09T01:45:04.580Z,17.16
2017-06-09T01:45:45.130Z,17.22
2017-06-09T01:46:25.679Z,17.15
2017-06-09T01:47:06.216Z,17.15
2017-06-09T01:47:46.755Z,17.06
2017-06-09T01:48:27.302Z,17.08
2017-06-09T01:49:07.838Z,17.01
2017-06-09T01:49:48.381Z,17.06
2017-06-09T01:50:28.919Z,17
2017-06-09T01:51:09.467Z,16.94
2017-06-09T01:51:50.019Z,17.01
2017-06-09T01:52:30.563Z,16.96
2017-06-09T01:53:11.104Z,16.93
2017-06-09T01:53:51.651Z,16.97
2017-06-09T01:54:32.182Z,16.91
2017-06-09T01:55:12.714Z,16.89
2017-06-09T01:55:53.265Z,16.94
2017-06-09T01:56:33.805Z,16.85
2017-06-09T01:57:14.353Z,16.86
2017-06-09T01:57:54.892Z,16.91
2017-06-09T01:58:35.432Z,16.88
2017-06-09T01:59:15.976Z,16.85
2017-06-09T01:59:56.519Z,16.89
2017-06-09T02:00:37.060Z,16.79
2017-06-09T02:01:17.685Z,16.81
2017-06-09T02:01:58.231Z,16.85
2017-06-09T02:02:38.775Z,16.76
2017-06-09T02:03:19.316Z,16.76
2017-06-09T02:03:59.863Z,16.83
2017-06-09T02:04:40.404Z,16.79
2017-06-09T02:05:20.947Z,16.82
2017-06-09T02:06:01.481Z,16.86
2017-06-09T02:06:42.026Z,16.83
2017-06-09T02:07:22.567Z,16.75
2017-06-09T02:08:03.107Z,16.75
2017-06-09T02:08:43.646Z,16.75
2017-06-09T02:09:24.183Z,16.76
2017-06-09T02:10:04.723Z,16.68
2017-06-09T02:10:45.245Z,16.68
2017-06-09T02:11:25.795Z,16.63
2017-06-09T02:12:06.329Z,16.71
2017-06-09T02:12:46.863Z,16.68
2017-06-09T02:13:27.406Z,16.73
2017-06-09T02:14:07.948Z,16.66
2017-06-09T02:14:48.503Z,16.68
2017-06-09T02:15:29.045Z,16.58
2017-06-09T02:16:09.586Z,16.58
2017-06-09T02:16:50.120Z,16.56
2017-06-09T02:17:30.670Z,16.58
2017-06-09T02:18:11.202Z,16.6
2017-06-09T02:18:51.754Z,16.57
2017-06-09T02:19:32.280Z,16.48
2017-06-09T02:20:12.823Z,16.57
2017-06-09T02:20:53.365Z,16.45
2017-06-09T02:21:33.910Z,16.46
2017-06-09T02:22:14.452Z,16.56
2017-06-09T02:22:54.975Z,16.46
2017-06-09T02:23:35.512Z,16.43
2017-06-09T02:24:16.064Z,16.43
2017-06-09T02:24:56.605Z,16.45
2017-06-09T02:25:37.126Z,16.46
2017-06-09T02:26:17.670Z,16.45
2017-06-09T02:26:58.196Z,16.43
2017-06-09T02:27:38.726Z,16.49
2017-06-09T02:28:19.263Z,16.42
2017-06-09T02:28:59.817Z,16.41
2017-06-09T02:29:40.380Z,16.39
2017-06-09T02:30:20.922Z,16.42
2017-06-09T02:31:01.455Z,16.35
2017-06-09T02:31:41.997Z,16.41
2017-06-09T02:32:22.542Z,16.35
2017-06-09T02:33:03.127Z,16.33
2017-06-09T02:33:43.634Z,16.35
2017-06-09T02:34:24.165Z,16.33
2017-06-09T02:35:04.688Z,16.25
2017-06-09T02:35:45.221Z,16.34
2017-06-09T02:36:25.777Z,16.41
2017-06-09T02:37:06.300Z,16.3
2017-06-09T02:37:46.847Z,16.34
2017-06-09T02:38:27.389Z,16.3
2017-06-09T02:39:07.931Z,16.31
2017-06-09T02:39:48.480Z,16.27
2017-06-09T02:40:29.022Z,16.21
2017-06-09T02:41:09.565Z,16.2
2017-06-09T02:41:50.091Z,16.17
2017-06-09T02:42:30.627Z,16.17
2017-06-09T02:43:11.171Z,16.23
2017-06-09T02:43:51.713Z,16.2
2017-06-09T02:44:32.266Z,16.25
2017-06-09T02:45:12.805Z,16.17
2017-06-09T02:45:53.349Z,16.12
2017-06-09T02:46:33.891Z,16.15
2017-06-09T02:47:14.445Z,16.08
2017-06-09T02:47:54.991Z,16.02
2017-06-09T02:48:35.544Z,16.09
2017-06-09T02:49:16.090Z,16.07
2017-06-09T02:49:56.626Z,16.04
2017-06-09T02:50:37.169Z,16.11
2017-06-09T02:51:17.709Z,16.02
2017-06-09T02:51:58.238Z,16.07
2017-06-09T02:52:38.782Z,16.01
2017-06-09T02:53:19.319Z,16.01
2017-06-09T02:53:59.864Z,16.02
2017-06-09T02:54:40.416Z,16
2017-06-09T02:55:20.954Z,16.01
2017-06-09T02:56:01.497Z,16
2017-06-09T02:56:42.029Z,15.97
2017-06-09T02:57:22.564Z,15.93
2017-06-09T02:58:03.117Z,15.96
2017-06-09T02:58:43.657Z,15.93
2017-06-09T02:59:24.177Z,16.01
2017-06-09T03:00:04.722Z,15.9
2017-06-09T03:00:45.262Z,15.84
2017-06-09T03:01:25.807Z,15.93
2017-06-09T03:02:06.347Z,15.97
2017-06-09T03:02:46.874Z,15.93
2017-06-09T03:03:27.417Z,15.84
2017-06-09T03:04:07.954Z,15.94
2017-06-09T03:04:48.492Z,15.93
2017-06-09T03:05:29.031Z,15.9
2017-06-09T03:06:09.573Z,15.89
2017-06-09T03:06:50.122Z,15.89
2017-06-09T03:07:30.672Z,15.93
2017-06-09T03:08:11.209Z,15.83
2017-06-09T03:08:51.748Z,15.97
2017-06-09T03:09:32.282Z,15.86
2017-06-09T03:10:12.820Z,15.86
2017-06-09T03:10:53.354Z,15.9
2017-06-09T03:11:33.903Z,15.97
2017-06-09T03:12:14.436Z,15.96
2017-06-09T03:12:54.985Z,15.86
2017-06-09T03:13:35.525Z,15.94
2017-06-09T03:14:16.070Z,16
2017-06-09T03:14:56.614Z,15.84
2017-06-09T03:15:37.150Z,15.93
2017-06-09T03:16:17.694Z,15.9
2017-06-09T03:16:58.228Z,15.92
2017-06-09T03:17:38.768Z,15.9
2017-06-09T03:18:19.308Z,15.86
2017-06-09T03:18:59.859Z,15.87
2017-06-09T03:19:40.399Z,15.83
2017-06-09T03:20:20.942Z,15.82
2017-06-09T03:21:01.477Z,15.76
2017-06-09T03:21:42.022Z,15.8
2017-06-09T03:22:22.557Z,15.8
2017-06-09T03:23:03.089Z,15.76
2017-06-09T03:23:43.622Z,15.76
2017-06-09T03:24:24.171Z,15.76
2017-06-09T03:25:04.714Z,15.67
2017-06-09T03:25:45.259Z,15.75
2017-06-09T03:26:25.800Z,15.69
2017-06-09T03:27:06.346Z,15.71
2017-06-09T03:27:46.901Z,15.71
2017-06-09T03:28:27.435Z,15.68
2017-06-09T03:29:07.979Z,15.67
2017-06-09T03:29:48.514Z,15.72
2017-06-09T03:30:29.055Z,15.68
2017-06-09T03:31:09.592Z,15.72
2017-06-09T03:31:50.139Z,15.76
2017-06-09T03:32:30.681Z,15.75
2017-06-09T03:33:11.222Z,15.78
2017-06-09T03:33:51.762Z,15.67
2017-06-09T03:34:32.296Z,15.76
2017-06-09T03:35:12.854Z,15.82
2017-06-09T03:35:53.388Z,15.76
2017-06-09T03:36:33.922Z,15.69
2017-06-09T03:37:14.453Z,15.75
2017-06-09T03:37:54.984Z,15.82
2017-06-09T03:38:35.527Z,15.83
2017-06-09T03:39:16.080Z,15.8
2017-06-09T03:39:56.599Z,15.8
2017-06-09T03:40:37.139Z,15.9
2017-06-09T03:41:17.699Z,15.84
2017-06-09T03:41:58.245Z,15.82
2017-06-09T03:42:38.794Z,15.84
2017-06-09T03:43:19.342Z,15.89
2017-06-09T03:43:59.891Z,15.97
2017-06-09T03:44:40.456Z,15.9
2017-06-09T03:45:20.999Z,15.9
2017-06-09T03:46:01.590Z,15.94
2017-06-09T03:46:42.131Z,16
2017-06-09T03:47:22.672Z,15.97
2017-06-09T03:48:03.219Z,16.04
2017-06-09T03:48:43.748Z,16.01
2017-06-09T03:49:24.284Z,16.01
2017-06-09T03:50:04.830Z,16
2017-06-09T03:50:45.357Z,16.04
2017-06-09T03:51:25.891Z,15.97
2017-06-09T03:52:06.433Z,16.08
2017-06-09T03:52:46.973Z,15.97
2017-06-09T03:53:27.513Z,16.02
2017-06-09T03:54:08.042Z,16.01
2017-06-09T03:54:48.574Z,16
2017-06-09T03:55:29.127Z,16
2017-06-09T03:56:09.638Z,16.07
2017-06-09T03:56:50.178Z,16.01
2017-06-09T03:57:30.708Z,16
2017-06-09T03:58:11.253Z,16
2017-06-09T03:58:51.807Z,16.02
2017-06-09T03:59:32.324Z,16.02
2017-06-09T04:00:12.983Z,16.01
2017-06-09T04:00:54.020Z,16.02
2017-06-09T04:01:34.583Z,16.02
2017-06-09T04:02:15.113Z,15.94
2017-06-09T04:02:55.621Z,16.01
2017-06-09T04:03:36.204Z,16.02
2017-06-09T04:04:16.751Z,15.97
2017-06-09T04:04:57.289Z,16.08
2017-06-09T04:05:37.831Z,16.02
2017-06-09T04:06:18.377Z,16.05
2017-06-09T04:06:58.927Z,16
2017-06-09T04:07:39.466Z,16.05
2017-06-09T04:08:20.013Z,16.05
2017-06-09T04:09:00.553Z,16.08
2017-06-09T04:09:41.132Z,15.97
2017-06-09T04:10:21.680Z,16.11
2017-06-09T04:11:02.231Z,16.01
2017-06-09T04:11:42.776Z,16.17
2017-06-09T04:12:23.319Z,16.09
2017-06-09T04:13:03.846Z,16.2
2017-06-09T04:13:44.389Z,16.11
2017-06-09T04:14:24.928Z,16.21
2017-06-09T04:15:05.449Z,16.23
2017-06-09T04:15:46.015Z,16.14
2017-06-09T04:16:26.564Z,16.25
2017-06-09T04:17:07.106Z,16.2
2017-06-09T04:17:47.650Z,16.27
2017-06-09T04:18:28.190Z,16.24
2017-06-09T04:19:08.772Z,16.24
2017-06-09T04:19:49.314Z,16.27
2017-06-09T04:20:29.857Z,16.33
2017-06-09T04:21:10.402Z,16.28
2017-06-09T04:21:50.943Z,16.39
2017-06-09T04:22:31.481Z,16.43
2017-06-09T04:23:12.025Z,16.39
2017-06-09T04:23:52.557Z,16.48
2017-06-09T04:24:33.096Z,16.43
2017-06-09T04:25:13.639Z,16.43
2017-06-09T04:25:54.190Z,16.45
2017-06-09T04:26:34.734Z,16.5
2017-06-09T04:27:15.284Z,16.5
2017-06-09T04:27:55.829Z,16.39
2017-06-09T04:28:36.375Z,16.5
2017-06-09T04:29:16.918Z,16.5
2017-06-09T04:29:57.462Z,16.56
2017-06-09T04:30:38.010Z,16.61
2017-06-09T04:31:18.555Z,16.56
2017-06-09T04:31:59.105Z,16.6
2017-06-09T04:32:39.636Z,16.58
2017-06-09T04:33:20.174Z,16.56
2017-06-09T04:34:00.737Z,16.64
2017-06-09T04:34:41.250Z,16.58
2017-06-09T04:35:21.792Z,16.66
2017-06-09T04:36:02.339Z,16.57
2017-06-09T04:36:42.885Z,16.58
2017-06-09T04:37:23.433Z,16.66
2017-06-09T04:38:03.971Z,16.61
2017-06-09T04:38:44.507Z,16.71
2017-06-09T04:39:25.055Z,16.68
2017-06-09T04:40:05.593Z,16.7
2017-06-09T04:40:46.135Z,16.67
2017-06-09T04:41:26.676Z,16.68
2017-06-09T04:42:07.221Z,16.75
2017-06-09T04:42:47.771Z,16.78
2017-06-09T04:43:28.316Z,16.82
2017-06-09T04:44:08.854Z,16.81
2017-06-09T04:44:49.399Z,16.86
2017-06-09T04:45:29.961Z,16.78
2017-06-09T04:46:10.496Z,16.83
2017-06-09T04:46:51.070Z,16.89
2017-06-09T04:47:31.617Z,16.82
2017-06-09T04:48:12.169Z,16.94
2017-06-09T04:48:52.722Z,16.93
2017-06-09T04:49:33.267Z,16.96
2017-06-09T04:50:13.806Z,16.94
2017-06-09T04:50:54.357Z,16.91
2017-06-09T04:51:34.906Z,17.01
2017-06-09T04:52:15.454Z,16.97
2017-06-09T04:52:56.006Z,16.94
2017-06-09T04:53:36.551Z,17.03
2017-06-09T04:54:17.094Z,17.03
2017-06-09T04:54:57.639Z,17.15
2017-06-09T04:55:38.182Z,17
2017-06-09T04:56:18.732Z,17.01
2017-06-09T04:56:59.276Z,17.07
2017-06-09T04:57:39.823Z,17.19
2017-06-09T04:58:20.370Z,17.14
2017-06-09T04:59:00.911Z,17.18
2017-06-09T04:59:41.453Z,17.22
2017-06-09T05:00:21.981Z,17.25
2017-06-09T05:01:02.533Z,17.28
2017-06-09T05:01:43.073Z,17.21
2017-06-09T05:02:23.617Z,17.19
2017-06-09T05:03:04.186Z,17.25
2017-06-09T05:03:44.751Z,17.31
2017-06-09T05:04:25.295Z,17.28
2017-06-09T05:05:05.838Z,17.23
2017-06-09T05:05:46.389Z,17.3
2017-06-09T05:06:26.944Z,17.26
2017-06-09T05:07:07.510Z,17.3
2017-06-09T05:07:48.076Z,17.28
2017-06-09T05:08:28.620Z,17.33
2017-06-09T05:09:09.172Z,17.41
2017-06-09T05:09:49.696Z,17.37
2017-06-09T05:10:30.243Z,17.38
2017-06-09T05:11:10.795Z,17.4
2017-06-09T05:11:51.352Z,17.36
2017-06-09T05:12:31.896Z,17.4
2017-06-09T05:13:12.448Z,17.38
2017-06-09T05:13:52.999Z,17.4
2017-06-09T05:14:33.550Z,17.38
2017-06-09T05:15:14.101Z,17.38
2017-06-09T05:15:54.684Z,17.34
2017-06-09T05:16:35.261Z,17.38
2017-06-09T05:17:15.772Z,17.43
2017-06-09T05:17:56.318Z,17.37
2017-06-09T05:18:36.868Z,17.4
2017-06-09T05:19:17.407Z,17.28
2017-06-09T05:19:57.959Z,17.36
2017-06-09T05:20:38.510Z,17.23
2017-06-09T05:21:19.057Z,17.28
2017-06-09T05:21:59.606Z,17.22
2017-06-09T05:22:40.159Z,17.25
2017-06-09T05:23:20.702Z,17.21
2017-06-09T05:24:01.247Z,17.3
2017-06-09T05:24:41.802Z,17.28
2017-06-09T05:25:22.361Z,17.33
2017-06-09T05:26:02.915Z,17.23
2017-06-09T05:26:43.467Z,17.31
2017-06-09T05:27:24.015Z,17.28
2017-06-09T05:28:04.600Z,17.3
2017-06-09T05:28:45.126Z,17.33
2017-06-09T05:29:25.686Z,17.18
2017-06-09T05:30:06.219Z,17.26
2017-06-09T05:30:46.771Z,17.25
2017-06-09T05:31:27.319Z,17.28
2017-06-09T05:32:07.901Z,17.34
2017-06-09T05:32:48.426Z,17.28
2017-06-09T05:33:28.982Z,17.25
2017-06-09T05:34:09.528Z,17.26
2017-06-09T05:34:50.081Z,17.26
2017-06-09T05:35:30.617Z,17.44
2017-06-09T05:36:11.185Z,17.37
2017-06-09T05:36:51.716Z,17.34
2017-06-09T05:37:32.272Z,17.38
2017-06-09T05:38:12.818Z,17.41
2017-06-09T05:38:53.382Z,17.41
2017-06-09T05:39:33.916Z,17.43
2017-06-09T05:40:14.467Z,17.46
2017-06-09T05:40:55.039Z,17.52
2017-06-09T05:41:35.588Z,17.55
2017-06-09T05:42:16.137Z,17.62
2017-06-09T05:42:56.693Z,17.71
2017-06-09T05:43:37.224Z,17.72
2017-06-09T05:44:17.781Z,17.75
2017-06-09T05:44:58.332Z,17.82
2017-06-09T05:45:39.078Z,17.86
2017-06-09T05:46:19.861Z,17.86
2017-06-09T05:47:00.424Z,17.95
2017-06-09T05:47:40.951Z,18.02
2017-06-09T05:48:21.487Z,18
2017-06-09T05:49:02.039Z,18.07
2017-06-09T05:49:42.594Z,18.18
2017-06-09T05:50:23.148Z,18.27
2017-06-09T05:51:03.694Z,18.25
2017-06-09T05:51:44.245Z,18.36
2017-06-09T05:52:24.797Z,18.35
2017-06-09T05:53:05.347Z,18.48
2017-06-09T05:53:45.887Z,18.5
2017-06-09T05:54:26.432Z,18.52
2017-06-09T05:55:06.969Z,18.62
2017-06-09T05:55:47.527Z,18.65
2017-06-09T05:56:28.085Z,18.65
2017-06-09T05:57:08.631Z,18.72
2017-06-09T05:57:49.186Z,18.72
2017-06-09T05:58:29.759Z,18.69
2017-06-09T05:59:10.332Z,18.7
2017-06-09T05:59:50.857Z,18.78
2017-06-09T06:00:31.409Z,18.81
2017-06-09T06:01:11.959Z,18.9
2017-06-09T06:01:52.509Z,18.84
2017-06-09T06:02:33.058Z,18.92
2017-06-09T06:03:13.611Z,18.95
2017-06-09T06:03:54.168Z,18.98
2017-06-09T06:04:34.718Z,19.04
2017-06-09T06:05:15.268Z,18.98
2017-06-09T06:05:55.840Z,19
2017-06-09T06:06:36.385Z,19.04
2017-06-09T06:07:16.946Z,18.99
2017-06-09T06:07:57.501Z,19.07
2017-06-09T06:08:38.041Z,19.08
2017-06-09T06:09:18.591Z,19.13
2017-06-09T06:09:59.114Z,19.11
2017-06-09T06:10:39.665Z,19.08
2017-06-09T06:11:20.217Z,19.06
2017-06-09T06:12:00.771Z,19.08
2017-06-09T06:12:41.318Z,19.14
2017-06-09T06:13:21.918Z,19.1
2017-06-09T06:14:02.556Z,19.1
2017-06-09T06:14:43.114Z,19.16
2017-06-09T06:15:23.663Z,19.16
2017-06-09T06:16:04.227Z,19.11
2017-06-09T06:16:44.768Z,19.07
2017-06-09T06:17:25.318Z,19.06
2017-06-09T06:18:05.867Z,19.11
2017-06-09T06:18:46.417Z,19.04
2017-06-09T06:19:26.970Z,19.07
2017-06-09T06:20:07.517Z,19.07
2017-06-09T06:20:48.063Z,19.02
2017-06-09T06:21:28.630Z,18.91
2017-06-09T06:22:09.192Z,19
2017-06-09T06:22:49.749Z,19.04
2017-06-09T06:23:30.300Z,19.06
2017-06-09T06:24:10.851Z,19.13
2017-06-09T06:24:51.401Z,19.04
2017-06-09T06:25:31.945Z,19.18
2017-06-09T06:26:12.492Z,19.16
2017-06-09T06:26:53.028Z,19.18
2017-06-09T06:27:33.577Z,19.31
2017-06-09T06:28:14.116Z,19.21
2017-06-09T06:28:54.660Z,19.23
2017-06-09T06:29:35.211Z,19.29
2017-06-09T06:30:15.878Z,19.36
2017-06-09T06:30:56.433Z,19.28
2017-06-09T06:31:36.970Z,19.36
2017-06-09T06:32:17.521Z,19.37
2017-06-09T06:32:58.068Z,19.39
2017-06-09T06:33:38.618Z,19.39
2017-06-09T06:34:19.242Z,19.47
2017-06-09T06:34:59.793Z,19.55
2017-06-09T06:35:40.337Z,19.63
2017-06-09T06:36:20.874Z,19.63
2017-06-09T06:37:01.495Z,19.74
2017-06-09T06:37:42.041Z,19.71
2017-06-09T06:38:22.582Z,19.8
2017-06-09T06:39:03.130Z,19.78
2017-06-09T06:39:43.664Z,19.83
2017-06-09T06:40:24.217Z,19.78
2017-06-09T06:41:04.771Z,19.88
2017-06-09T06:41:45.322Z,19.88
2017-06-09T06:42:25.889Z,19.88
2017-06-09T06:43:06.401Z,19.98
2017-06-09T06:43:46.954Z,19.98
2017-06-09T06:44:27.503Z,20.06
2017-06-09T06:45:08.054Z,19.98
2017-06-09T06:45:48.603Z,20.01
2017-06-09T06:46:29.153Z,20.02
2017-06-09T06:47:09.703Z,19.99
2017-06-09T06:47:50.277Z,20.08
2017-06-09T06:48:30.827Z,20.1
2017-06-09T06:49:11.374Z,19.96
2017-06-09T06:49:51.941Z,20.02
2017-06-09T06:50:32.480Z,20.01
2017-06-09T06:51:13.064Z,19.96
2017-06-09T06:51:53.601Z,19.91
2017-06-09T06:52:34.157Z,19.88
2017-06-09T06:53:14.698Z,19.91
2017-06-09T06:53:55.245Z,19.83
2017-06-09T06:54:35.820Z,19.86
2017-06-09T06:55:16.367Z,19.83
2017-06-09T06:55:56.919Z,19.78
2017-06-09T06:56:37.457Z,19.74
2017-06-09T06:57:18.008Z,19.77
2017-06-09T06:57:58.539Z,19.74
2017-06-09T06:58:39.095Z,19.73
2017-06-09T06:59:19.637Z,19.71
2017-06-09T07:00:00.194Z,19.65
2017-06-09T07:00:40.737Z,19.5
2017-06-09T07:01:21.286Z,19.55
2017-06-09T07:02:01.843Z,19.58
2017-06-09T07:02:42.375Z,19.61
2017-06-09T07:03:22.920Z,19.51
2017-06-09T07:04:03.472Z,19.59
2017-06-09T07:04:44.019Z,19.5
2017-06-09T07:05:24.552Z,19.56
2017-06-09T07:06:05.110Z,19.54
2017-06-09T07:06:45.644Z,19.56
2017-06-09T07:07:26.190Z,19.62
2017-06-09T07:08:06.732Z,19.61
2017-06-09T07:08:47.285Z,19.54
2017-06-09T07:09:27.913Z,19.56
2017-06-09T07:10:08.412Z,19.62
2017-06-09T07:10:48.960Z,19.66
2017-06-09T07:11:29.502Z,19.58
2017-06-09T07:12:10.052Z,19.62
2017-06-09T07:12:50.597Z,19.59
2017-06-09T07:13:31.139Z,19.63
2017-06-09T07:14:11.684Z,19.63
2017-06-09T07:14:52.226Z,19.55
2017-06-09T07:15:32.778Z,19.62
2017-06-09T07:16:13.319Z,19.55
2017-06-09T07:16:53.856Z,19.65
2017-06-09T07:17:34.409Z,19.54
2017-06-09T07:18:14.954Z,19.63
2017-06-09T07:18:55.509Z,19.55
2017-06-09T07:19:36.059Z,19.59
2017-06-09T07:20:16.601Z,19.59
2017-06-09T07:21:06.318Z,19.59
2017-06-09T07:21:41.779Z,19.59
2017-06-09T07:22:22.325Z,19.56
2017-06-09T07:23:02.865Z,19.58
2017-06-09T07:23:43.424Z,19.61
2017-06-09T07:24:23.996Z,19.51
2017-06-09T07:25:04.544Z,19.63
2017-06-09T07:25:45.093Z,19.59
2017-06-09T07:26:25.638Z,19.56
2017-06-09T07:27:06.184Z,19.58
2017-06-09T07:27:46.727Z,19.62
2017-06-09T07:28:27.268Z,19.59
2017-06-09T07:29:07.809Z,19.62
2017-06-09T07:29:48.355Z,19.65
2017-06-09T07:30:28.890Z,19.61
2017-06-09T07:31:09.433Z,19.63
2017-06-09T07:31:49.967Z,19.65
2017-06-09T07:32:30.506Z,19.61
2017-06-09T07:33:11.045Z,19.66
2017-06-09T07:33:51.588Z,19.71
2017-06-09T07:34:32.132Z,19.73
2017-06-09T07:35:12.680Z,19.68
2017-06-09T07:35:53.217Z,19.71
2017-06-09T07:36:33.750Z,19.68
2017-06-09T07:37:14.299Z,19.69
2017-06-09T07:37:54.860Z,19.66
2017-06-09T07:38:35.384Z,19.66
2017-06-09T07:39:15.928Z,19.62
2017-06-09T07:39:56.466Z,19.71
2017-06-09T07:40:37.017Z,19.73
2017-06-09T07:41:17.548Z,19.68
2017-06-09T07:41:58.084Z,19.77
2017-06-09T07:42:38.621Z,19.73
2017-06-09T07:43:19.160Z,19.73
2017-06-09T07:43:59.701Z,19.66
2017-06-09T07:44:40.250Z,19.74
2017-06-09T07:45:20.795Z,19.76
2017-06-09T07:46:01.347Z,19.77
2017-06-09T07:46:41.890Z,19.83
2017-06-09T07:47:22.439Z,19.87
2017-06-09T07:48:02.987Z,19.92
2017-06-09T07:48:43.534Z,19.91
2017-06-09T07:49:24.074Z,19.87
2017-06-09T07:50:04.613Z,19.92
2017-06-09T07:50:45.156Z,19.99
2017-06-09T07:51:25.695Z,20.01
2017-06-09T07:52:06.242Z,20.1
2017-06-09T07:52:46.784Z,20.06
2017-06-09T07:53:27.327Z,20.05
2017-06-09T07:54:07.864Z,20.06
2017-06-09T07:54:48.414Z,20.13
2017-06-09T07:55:28.953Z,20.11
2017-06-09T07:56:09.496Z,20.16
2017-06-09T07:56:50.037Z,20.17
2017-06-09T07:57:30.584Z,20.24
2017-06-09T07:58:11.129Z,20.31
2017-06-09T07:58:51.672Z,20.31
2017-06-09T07:59:32.217Z,20.38
2017-06-09T08:00:12.762Z,20.43
2017-06-09T08:00:53.308Z,20.36
2017-06-09T08:01:33.849Z,20.36
2017-06-09T08:02:14.393Z,20.39
2017-06-09T08:02:54.953Z,20.42
2017-06-09T08:03:35.476Z,20.47
2017-06-09T08:04:16.022Z,20.47
2017-06-09T08:04:56.576Z,20.54
2017-06-09T08:05:37.103Z,20.55
2017-06-09T08:06:17.643Z,20.58
2017-06-09T08:06:58.183Z,20.54
2017-06-09T08:07:38.731Z,20.55
2017-06-09T08:08:19.272Z,20.48
2017-06-09T08:08:59.824Z,20.55
2017-06-09T08:09:40.361Z,20.57
2017-06-09T08:10:20.917Z,20.55
2017-06-09T08:11:01.441Z,20.59
2017-06-09T08:11:41.984Z,20.51
2017-06-09T08:12:22.530Z,20.43
2017-06-09T08:13:03.072Z,20.41
2017-06-09T08:13:43.608Z,20.32
2017-06-09T08:14:24.147Z,20.26
2017-06-09T08:15:04.684Z,20.32
2017-06-09T08:15:45.224Z,20.31
2017-06-09T08:16:25.761Z,20.28
2017-06-09T08:17:06.307Z,20.31
2017-06-09T08:17:46.845Z,20.29
2017-06-09T08:18:27.386Z,20.31
2017-06-09T08:19:07.940Z,20.33
2017-06-09T08:19:48.478Z,20.39
2017-06-09T08:20:29.024Z,20.32
2017-06-09T08:21:09.576Z,20.33
2017-06-09T08:21:50.116Z,20.23
2017-06-09T08:22:30.672Z,20.17
2017-06-09T08:23:11.222Z,20.16
2017-06-09T08:23:51.769Z,20.11
2017-06-09T08:24:32.306Z,20.01
2017-06-09T08:25:12.860Z,20.01
2017-06-09T08:25:53.396Z,20.03
2017-06-09T08:26:33.941Z,19.96
2017-06-09T08:27:14.489Z,20.02
2017-06-09T08:27:55.024Z,19.91
2017-06-09T08:28:35.565Z,19.98
2017-06-09T08:29:16.110Z,20.01
2017-06-09T08:29:56.655Z,19.87
2017-06-09T08:30:37.201Z,19.88
2017-06-09T08:31:17.756Z,19.91
2017-06-09T08:31:58.328Z,19.87
2017-06-09T08:32:38.851Z,19.8
2017-06-09T08:33:19.410Z,19.74
2017-06-09T08:33:59.957Z,19.87
2017-06-09T08:34:40.493Z,19.8
2017-06-09T08:35:21.041Z,19.76
2017-06-09T08:36:01.596Z,19.78
2017-06-09T08:36:42.151Z,19.77
2017-06-09T08:37:22.694Z,19.71
2017-06-09T08:38:03.253Z,19.74
2017-06-09T08:38:43.796Z,19.78
2017-06-09T08:39:24.343Z,19.77
2017-06-09T08:40:04.878Z,19.78
2017-06-09T08:40:45.419Z,19.8
2017-06-09T08:41:25.963Z,19.78
2017-06-09T08:42:06.504Z,19.76
2017-06-09T08:42:47.051Z,19.78
2017-06-09T08:43:27.590Z,19.78
2017-06-09T08:44:08.147Z,19.76